Time;durP1;ratioP1;P1;durP2;ratioP2;P2;SDS_P1;SDS_P2;PMS_P1;PMS_P2;Temp;Humidity;BMP_temperature;BMP_pressure;BME280_temperature;BME280_humidity;BME280_pressure;Samples;Min_cycle;Max_cycle;Signal;HPM_P1;HPM_P2
2022/05/29 00:00:30;;;;;;;10.70;4.63;;;;;;;;;;5004109;28;20246;-72
2022/05/29 00:02:57;;;;;;;9.07;3.70;;;;;;;;;;5028749;28;20322;-73
2022/05/29 00:05:27;;;;;;;11.40;4.30;;;;;;;;;;5035104;28;20303;-74
2022/05/29 00:07:53;;;;;;;14.30;4.07;;;;;;;;;;5016589;28;20299;-73
2022/05/29 00:10:23;;;;;;;9.07;3.93;;;;;;;;;;5017529;28;20232;-73
2022/05/29 00:12:48;;;;;;;10.27;4.00;;;;;;;;;;4991997;28;20219;-73
2022/05/29 00:15:16;;;;;;;10.20;4.13;;;;;;;;;;4988824;28;20320;-72
2022/05/29 00:17:43;;;;;;;11.37;3.87;;;;;;;;;;4998193;28;20789;-74
2022/05/29 00:20:10;;;;;;;7.87;3.87;;;;;;;;;;5009501;28;20259;-74
2022/05/29 00:22:39;;;;;;;14.50;4.50;;;;;;;;;;4992370;28;20234;-74
2022/05/29 00:25:08;;;;;;;12.20;4.30;;;;;;;;;;5046332;28;20224;-74
2022/05/29 00:27:34;;;;;;;12.00;4.17;;;;;;;;;;4987439;28;20324;-75
2022/05/29 00:30:00;;;;;;;9.97;4.30;;;;;;;;;;4989841;28;20252;-74
2022/05/29 00:32:30;;;;;;;11.00;4.20;;;;;;;;;;4986100;28;20253;-72
2022/05/29 00:34:55;;;;;;;12.17;4.57;;;;;;;;;;5003732;28;20219;-73
2022/05/29 00:37:23;;;;;;;12.80;4.50;;;;;;;;;;4995204;28;20235;-74
2022/05/29 00:39:49;;;;;;;11.63;4.40;;;;;;;;;;4957591;28;20217;-73
2022/05/29 00:42:15;;;;;;;11.70;4.67;;;;;;;;;;4982356;28;20353;-74
2022/05/29 00:44:45;;;;;;;12.37;4.13;;;;;;;;;;5001130;28;20252;-74
2022/05/29 00:47:15;;;;;;;9.23;3.80;;;;;;;;;;4989139;28;20655;-73
2022/05/29 00:49:44;;;;;;;12.63;4.83;;;;;;;;;;4980559;28;20243;-74
2022/05/29 00:52:25;;;;;;;10.77;3.97;;;;;;;;;;4983434;28;20271;-73
2022/05/29 00:54:53;;;;;;;18.00;5.00;;;;;;;;;;5002871;28;20254;-73
2022/05/29 00:57:23;;;;;;;10.97;4.13;;;;;;;;;;4974473;28;20223;-73
2022/05/29 00:59:49;;;;;;;12.57;4.77;;;;;;;;;;5015785;28;20311;-74
2022/05/29 01:02:14;;;;;;;10.60;4.47;;;;;;;;;;4995791;28;20314;-73
2022/05/29 01:04:40;;;;;;;16.47;4.70;;;;;;;;;;4999537;28;20227;-72
2022/05/29 01:07:06;;;;;;;12.03;4.60;;;;;;;;;;5015372;28;20223;-73
2022/05/29 01:09:33;;;;;;;12.03;4.63;;;;;;;;;;4999522;28;20586;-73
2022/05/29 01:12:20;;;;;;;11.67;4.47;;;;;;;;;;5002745;28;20230;-73
2022/05/29 01:15:03;;;;;;;11.43;4.97;;;;;;;;;;5019318;28;20593;-73
2022/05/29 01:17:57;;;;;;;18.33;4.77;;;;;;;;;;4981019;28;20244;-74
2022/05/29 01:20:28;;;;;;;13.33;4.53;;;;;;;;;;5003821;28;20228;-74
2022/05/29 01:23:25;;;;;;;13.97;4.70;;;;;;;;;;5015330;28;20265;-75
2022/05/29 01:26:09;;;;;;;13.63;4.67;;;;;;;;;;5015152;28;20219;-74
2022/05/29 01:28:46;;;;;;;14.90;4.77;;;;;;;;;;5015284;28;20768;-73
2022/05/29 01:31:31;;;;;;;12.43;4.47;;;;;;;;;;5008569;28;20236;-73
2022/05/29 01:34:09;;;;;;;14.53;4.63;;;;;;;;;;4994690;28;20228;-74
2022/05/29 01:37:12;;;;;;;13.70;4.70;;;;;;;;;;5000594;28;20227;-72
2022/05/29 01:40:10;;;;;;;9.10;4.27;;;;;;;;;;5002903;28;20227;-73
2022/05/29 01:42:57;;;;;;;12.37;4.40;;;;;;;;;;5000325;28;20243;-73
2022/05/29 01:45:53;;;;;;;13.33;4.53;;;;;;;;;;5031332;28;20280;-73
2022/05/29 01:48:29;;;;;;;16.80;5.07;;;;;;;;;;5007217;28;20235;-74
2022/05/29 01:50:57;;;;;;;16.87;4.67;;;;;;;;;;5016323;28;20232;-74
2022/05/29 01:53:35;;;;;;;15.73;4.90;;;;;;;;;;4961937;28;20258;-75
2022/05/29 01:56:05;;;;;;;7.93;4.10;;;;;;;;;;4989389;28;20220;-74
2022/05/29 01:58:37;;;;;;;10.73;4.40;;;;;;;;;;5002438;28;20246;-73
2022/05/29 02:01:04;;;;;;;9.77;4.20;;;;;;;;;;5016761;28;20252;-73
2022/05/29 02:03:43;;;;;;;11.47;4.50;;;;;;;;;;4992420;28;20745;-74
2022/05/29 02:09:34;;;;;;;11.27;3.77;;;;;;;;;;4997666;28;20219;-74
2022/05/29 02:12:00;;;;;;;12.07;3.80;;;;;;;;;;5008796;28;20717;-73
2022/05/29 02:14:38;;;;;;;10.33;4.13;;;;;;;;;;4998197;28;20223;-73
2022/05/29 02:17:13;;;;;;;12.23;4.00;;;;;;;;;;5019433;28;20226;-72
2022/05/29 02:19:47;;;;;;;12.40;4.47;;;;;;;;;;4983095;28;20306;-74
2022/05/29 02:22:18;;;;;;;11.50;4.50;;;;;;;;;;5000730;28;20302;-73
2022/05/29 02:24:50;;;;;;;11.80;4.00;;;;;;;;;;5003335;28;20259;-74
2022/05/29 02:27:29;;;;;;;9.63;4.00;;;;;;;;;;4999294;28;20229;-74
2022/05/29 02:30:01;;;;;;;15.30;4.30;;;;;;;;;;4991649;28;20811;-74
2022/05/29 02:32:58;;;;;;;11.97;4.20;;;;;;;;;;5001259;28;20303;-74
2022/05/29 02:35:34;;;;;;;14.20;4.23;;;;;;;;;;5038035;28;20860;-74
2022/05/29 02:38:03;;;;;;;14.50;4.77;;;;;;;;;;5016906;28;20225;-74
2022/05/29 02:40:45;;;;;;;13.73;4.70;;;;;;;;;;5020674;28;20771;-73
2022/05/29 02:43:33;;;;;;;12.40;4.50;;;;;;;;;;4999679;28;20233;-72
2022/05/29 02:46:15;;;;;;;14.27;4.47;;;;;;;;;;5030893;28;20694;-73
2022/05/29 02:48:42;;;;;;;12.47;4.40;;;;;;;;;;5008770;28;20254;-73
2022/05/29 02:51:25;;;;;;;12.90;4.67;;;;;;;;;;5018187;28;20224;-74
2022/05/29 02:53:50;;;;;;;17.83;5.00;;;;;;;;;;5021451;28;20234;-74
2022/05/29 02:56:18;;;;;;;13.93;4.80;;;;;;;;;;5018596;28;20235;-74
2022/05/29 02:58:47;;;;;;;19.43;5.67;;;;;;;;;;5004823;28;20251;-72
2022/05/29 03:01:28;;;;;;;15.77;5.47;;;;;;;;;;5021011;28;20307;-74
2022/05/29 03:03:53;;;;;;;13.93;5.10;;;;;;;;;;4976956;28;20666;-74
2022/05/29 03:06:39;;;;;;;15.97;4.97;;;;;;;;;;5026458;28;20224;-74
2022/05/29 03:09:38;;;;;;;14.03;4.93;;;;;;;;;;4985634;28;20225;-74
2022/05/29 03:12:27;;;;;;;16.90;4.90;;;;;;;;;;5019172;28;20225;-73
2022/05/29 03:15:03;;;;;;;14.20;5.30;;;;;;;;;;5023790;28;20216;-74
2022/05/29 03:17:28;;;;;;;12.47;4.40;;;;;;;;;;5008085;28;20714;-73
2022/05/29 03:20:15;;;;;;;14.10;4.90;;;;;;;;;;5021800;28;20243;-75
2022/05/29 03:22:58;;;;;;;15.70;5.27;;;;;;;;;;5019426;28;20713;-73
2022/05/29 03:25:46;;;;;;;13.03;4.87;;;;;;;;;;4995232;28;20217;-73
2022/05/29 03:28:39;;;;;;;11.80;4.67;;;;;;;;;;4999763;28;20232;-74
2022/05/29 03:31:12;;;;;;;11.10;4.47;;;;;;;;;;4959966;28;20236;-75
2022/05/29 03:33:39;;;;;;;18.63;5.43;;;;;;;;;;4990994;28;20225;-74
2022/05/29 03:36:08;;;;;;;17.07;4.73;;;;;;;;;;4990543;28;20278;-73
2022/05/29 03:38:34;;;;;;;12.57;4.67;;;;;;;;;;5021212;28;20224;-74
2022/05/29 03:40:59;;;;;;;11.63;4.70;;;;;;;;;;4993952;28;20223;-74
2022/05/29 03:43:28;;;;;;;13.63;4.73;;;;;;;;;;5009672;28;21223;-73
2022/05/29 03:45:53;;;;;;;11.13;4.27;;;;;;;;;;4997443;28;20230;-75
2022/05/29 03:48:19;;;;;;;14.07;4.93;;;;;;;;;;4999353;28;20646;-73
2022/05/29 03:50:44;;;;;;;11.50;4.47;;;;;;;;;;5003448;28;20306;-76
2022/05/29 03:53:10;;;;;;;11.97;4.40;;;;;;;;;;4993631;28;20311;-75
2022/05/29 03:55:35;;;;;;;11.73;4.67;;;;;;;;;;5006281;28;20223;-73
2022/05/29 03:58:02;;;;;;;11.30;4.43;;;;;;;;;;5003008;28;20232;-74
2022/05/29 04:00:30;;;;;;;14.23;5.03;;;;;;;;;;5003307;28;20228;-73
2022/05/29 04:02:55;;;;;;;15.50;4.73;;;;;;;;;;4991475;28;20234;-73
2022/05/29 04:05:30;;;;;;;13.40;4.63;;;;;;;;;;4985425;28;20271;-74
2022/05/29 04:13:27;;;;;;;12.27;5.00;;;;;;;;;;5007017;28;20357;-72
2022/05/29 04:15:55;;;;;;;12.57;4.63;;;;;;;;;;5020008;28;20305;-72
2022/05/29 04:18:23;;;;;;;11.73;4.87;;;;;;;;;;5016949;28;20701;-72
2022/05/29 04:20:53;;;;;;;14.37;5.00;;;;;;;;;;5016808;28;20224;-74
2022/05/29 04:23:19;;;;;;;13.30;4.33;;;;;;;;;;4977490;28;20252;-74
2022/05/29 04:25:45;;;;;;;17.13;4.63;;;;;;;;;;4982825;28;20606;-74
2022/05/29 04:28:10;;;;;;;15.97;4.70;;;;;;;;;;5003916;28;20720;-74
2022/05/29 04:30:36;;;;;;;12.93;4.17;;;;;;;;;;5012600;28;20228;-73
2022/05/29 04:33:04;;;;;;;11.97;4.70;;;;;;;;;;4987130;28;20215;-73
2022/05/29 04:35:38;;;;;;;12.60;4.83;;;;;;;;;;5006465;28;20220;-73
2022/05/29 04:38:06;;;;;;;13.90;4.53;;;;;;;;;;5002902;28;20217;-73
2022/05/29 04:40:36;;;;;;;13.83;4.73;;;;;;;;;;4968346;28;20236;-73
2022/05/29 04:43:01;;;;;;;11.63;4.57;;;;;;;;;;5032882;28;20236;-74
2022/05/29 04:45:29;;;;;;;15.20;4.63;;;;;;;;;;4997640;28;20299;-73
2022/05/29 04:47:59;;;;;;;12.23;4.37;;;;;;;;;;5010012;28;20285;-73
2022/05/29 04:50:27;;;;;;;16.33;4.53;;;;;;;;;;4994390;28;20227;-73
2022/05/29 04:52:53;;;;;;;16.07;5.00;;;;;;;;;;4970787;28;20223;-73
2022/05/29 04:55:23;;;;;;;12.13;4.70;;;;;;;;;;5033268;28;20224;-73
2022/05/29 04:57:51;;;;;;;12.63;4.37;;;;;;;;;;5017242;28;20307;-73
2022/05/29 05:00:16;;;;;;;11.60;3.97;;;;;;;;;;4987839;28;20832;-73
2022/05/29 05:02:45;;;;;;;11.43;4.27;;;;;;;;;;4980818;28;20241;-73
2022/05/29 05:05:10;;;;;;;12.87;4.47;;;;;;;;;;4999801;28;20228;-74
2022/05/29 05:07:41;;;;;;;10.00;4.53;;;;;;;;;;5002916;28;20230;-72
2022/05/29 05:10:11;;;;;;;12.67;4.20;;;;;;;;;;5018778;28;20220;-73
2022/05/29 05:12:37;;;;;;;14.10;4.23;;;;;;;;;;5017747;28;20267;-74
2022/05/29 05:15:03;;;;;;;10.53;4.07;;;;;;;;;;4998416;28;20315;-73
2022/05/29 05:17:29;;;;;;;12.80;4.67;;;;;;;;;;5020291;28;20777;-72
2022/05/29 05:19:56;;;;;;;10.40;4.90;;;;;;;;;;4999290;28;20238;-73
2022/05/29 05:22:22;;;;;;;13.73;5.07;;;;;;;;;;5035871;28;20235;-73
2022/05/29 05:24:49;;;;;;;16.80;5.10;;;;;;;;;;4995182;28;20299;-73
2022/05/29 05:27:15;;;;;;;13.13;5.10;;;;;;;;;;4995786;28;20220;-73
2022/05/29 05:29:44;;;;;;;14.03;5.63;;;;;;;;;;5015584;28;20254;-72
2022/05/29 05:32:13;;;;;;;11.87;4.87;;;;;;;;;;5002126;28;20238;-73
2022/05/29 05:34:40;;;;;;;17.23;4.67;;;;;;;;;;5014367;28;20223;-74
2022/05/29 05:37:06;;;;;;;13.80;5.20;;;;;;;;;;4982127;28;20225;-73
2022/05/29 05:39:34;;;;;;;12.33;5.43;;;;;;;;;;5014116;28;20230;-73
2022/05/29 05:42:02;;;;;;;14.50;5.47;;;;;;;;;;5015483;28;20259;-72
2022/05/29 05:44:27;;;;;;;11.13;4.87;;;;;;;;;;4997873;28;20241;-73
2022/05/29 05:46:53;;;;;;;14.60;5.20;;;;;;;;;;5014143;28;20573;-74
2022/05/29 05:49:22;;;;;;;16.57;5.00;;;;;;;;;;5003726;28;20211;-72
2022/05/29 05:51:47;;;;;;;16.57;5.03;;;;;;;;;;4981583;28;20228;-74
2022/05/29 05:54:13;;;;;;;17.23;5.30;;;;;;;;;;5000780;28;20378;-72
2022/05/29 05:56:42;;;;;;;13.73;4.73;;;;;;;;;;5000112;28;20220;-73
2022/05/29 05:59:08;;;;;;;13.83;5.30;;;;;;;;;;4976195;28;20270;-73
2022/05/29 06:01:33;;;;;;;12.37;5.00;;;;;;;;;;5003577;28;20682;-72
2022/05/29 06:03:59;;;;;;;14.33;5.23;;;;;;;;;;4993073;28;20274;-72
2022/05/29 06:06:24;;;;;;;13.60;4.90;;;;;;;;;;5003126;28;20713;-71
2022/05/29 06:08:50;;;;;;;13.87;4.83;;;;;;;;;;5006210;28;20211;-74
2022/05/29 06:11:15;;;;;;;16.77;4.97;;;;;;;;;;5004220;28;20238;-72
2022/05/29 06:13:41;;;;;;;12.70;4.93;;;;;;;;;;5004664;28;20225;-73
2022/05/29 06:16:09;;;;;;;11.93;5.47;;;;;;;;;;5012588;28;20220;-72
2022/05/29 06:18:37;;;;;;;11.90;4.70;;;;;;;;;;5027320;28;20266;-74
2022/05/29 06:21:05;;;;;;;12.43;4.90;;;;;;;;;;5019483;28;20254;-72
2022/05/29 06:26:02;;;;;;;16.80;5.10;;;;;;;;;;5043513;28;20292;-74
2022/05/29 06:28:28;;;;;;;10.53;4.93;;;;;;;;;;5017946;28;20227;-73
2022/05/29 06:30:54;;;;;;;13.30;5.33;;;;;;;;;;5015463;28;20223;-73
2022/05/29 06:33:26;;;;;;;15.00;5.20;;;;;;;;;;5035233;28;20216;-76
2022/05/29 06:35:54;;;;;;;11.47;5.17;;;;;;;;;;5001727;28;20220;-73
2022/05/29 06:38:20;;;;;;;11.03;4.40;;;;;;;;;;5005509;28;20223;-74
2022/05/29 06:40:49;;;;;;;12.83;4.83;;;;;;;;;;5032817;28;20234;-75
2022/05/29 06:43:18;;;;;;;14.27;5.07;;;;;;;;;;5031601;28;20232;-74
2022/05/29 06:45:44;;;;;;;9.80;4.50;;;;;;;;;;5015899;28;20224;-74
2022/05/29 06:48:12;;;;;;;11.47;4.10;;;;;;;;;;5032638;28;20230;-73
2022/05/29 06:50:38;;;;;;;10.27;3.87;;;;;;;;;;5033416;28;20231;-72
2022/05/29 06:53:03;;;;;;;11.83;3.67;;;;;;;;;;4982597;28;20971;-74
2022/05/29 06:55:29;;;;;;;10.03;3.80;;;;;;;;;;5031491;28;20224;-73
2022/05/29 06:57:56;;;;;;;9.10;3.67;;;;;;;;;;4982698;28;20242;-73
2022/05/29 07:08:42;;;;;;;5.97;2.50;;;;;;;;;;5027264;28;20234;-73
2022/05/29 07:11:12;;;;;;;6.43;2.67;;;;;;;;;;5031305;28;20224;-73
2022/05/29 07:13:38;;;;;;;5.77;2.47;;;;;;;;;;5013390;28;20693;-74
2022/05/29 07:16:06;;;;;;;7.03;2.50;;;;;;;;;;5031597;28;20212;-73
2022/05/29 07:18:34;;;;;;;5.73;2.90;;;;;;;;;;5031359;28;20311;-72
2022/05/29 07:21:02;;;;;;;4.70;2.60;;;;;;;;;;5012410;28;20216;-73
2022/05/29 07:23:28;;;;;;;6.03;2.93;;;;;;;;;;5014145;28;20322;-73
2022/05/29 07:25:56;;;;;;;5.50;2.50;;;;;;;;;;5013083;28;20212;-72
2022/05/29 07:28:22;;;;;;;6.67;2.60;;;;;;;;;;5023454;28;20216;-72
2022/05/29 07:30:49;;;;;;;4.67;2.80;;;;;;;;;;4982705;28;20230;-73
2022/05/29 07:33:14;;;;;;;4.60;2.33;;;;;;;;;;5004565;28;20309;-73
2022/05/29 07:35:45;;;;;;;6.83;2.93;;;;;;;;;;4967296;28;20269;-73
2022/05/29 07:38:10;;;;;;;7.53;3.00;;;;;;;;;;4972392;28;20664;-73
2022/05/29 07:40:36;;;;;;;8.60;2.93;;;;;;;;;;4989914;28;20293;-73
2022/05/29 07:43:19;;;;;;;6.60;3.20;;;;;;;;;;4989687;28;20228;-73
2022/05/29 07:45:46;;;;;;;6.53;2.87;;;;;;;;;;5007591;28;20228;-72
2022/05/29 07:48:15;;;;;;;8.30;2.90;;;;;;;;;;5018299;28;20272;-74
2022/05/29 07:50:44;;;;;;;7.70;3.07;;;;;;;;;;5015876;28;20224;-73
2022/05/29 07:53:09;;;;;;;6.77;3.30;;;;;;;;;;4988790;28;20224;-74
2022/05/29 07:55:37;;;;;;;8.33;3.30;;;;;;;;;;4988144;28;21102;-73
2022/05/29 07:58:06;;;;;;;6.60;3.43;;;;;;;;;;4972704;28;20231;-74
2022/05/29 08:00:34;;;;;;;4.77;3.17;;;;;;;;;;4973117;28;20311;-73
2022/05/29 08:02:59;;;;;;;6.93;3.70;;;;;;;;;;5003722;28;20732;-72
2022/05/29 08:05:25;;;;;;;4.83;2.97;;;;;;;;;;4981566;28;20312;-73
2022/05/29 08:07:50;;;;;;;5.93;3.20;;;;;;;;;;5022639;28;20220;-72
2022/05/29 08:10:17;;;;;;;5.30;2.63;;;;;;;;;;5016503;28;20224;-73
2022/05/29 08:12:45;;;;;;;5.30;2.53;;;;;;;;;;5005775;28;20621;-73
2022/05/29 08:15:13;;;;;;;8.43;2.60;;;;;;;;;;5017077;28;20228;-72
2022/05/29 08:17:40;;;;;;;5.90;2.90;;;;;;;;;;4984466;28;20641;-72
2022/05/29 08:20:12;;;;;;;6.97;2.60;;;;;;;;;;4988772;28;20602;-72
2022/05/29 08:22:37;;;;;;;4.07;2.37;;;;;;;;;;4986747;28;20232;-73
2022/05/29 08:30:43;;;;;;;5.37;2.50;;;;;;;;;;5022545;28;20235;-72
2022/05/29 08:33:12;;;;;;;6.40;2.50;;;;;;;;;;4986617;28;20230;-72
2022/05/29 08:35:43;;;;;;;7.00;2.60;;;;;;;;;;5019402;28;20599;-73
2022/05/29 08:38:12;;;;;;;4.77;2.27;;;;;;;;;;4981631;28;20212;-73
2022/05/29 08:40:51;;;;;;;6.97;2.77;;;;;;;;;;5022462;28;20231;-73
2022/05/29 08:43:31;;;;;;;8.40;2.57;;;;;;;;;;4952356;28;20672;-74
2022/05/29 08:45:59;;;;;;;5.80;2.40;;;;;;;;;;4997803;28;20224;-74
2022/05/29 08:48:27;;;;;;;4.93;2.40;;;;;;;;;;4980664;28;20684;-74
2022/05/29 08:51:07;;;;;;;5.30;2.40;;;;;;;;;;4980517;28;20234;-73
2022/05/29 08:53:34;;;;;;;3.13;1.60;;;;;;;;;;5021809;28;20246;-72
2022/05/29 08:56:10;;;;;;;4.67;2.00;;;;;;;;;;5004245;28;20593;-73
2022/05/29 08:58:58;;;;;;;5.90;2.20;;;;;;;;;;4987103;28;20235;-73
2022/05/29 09:01:41;;;;;;;3.73;1.90;;;;;;;;;;4979860;28;20286;-72
2022/05/29 09:04:16;;;;;;;2.93;1.60;;;;;;;;;;4979415;28;20219;-75
2022/05/29 09:06:48;;;;;;;5.07;2.03;;;;;;;;;;5003656;28;20227;-73
2022/05/29 09:09:47;;;;;;;5.70;1.87;;;;;;;;;;5021028;28;20317;-75
2022/05/29 09:12:20;;;;;;;4.77;1.77;;;;;;;;;;4993032;28;20220;-72
2022/05/29 09:14:52;;;;;;;3.57;1.63;;;;;;;;;;4980989;28;20323;-73
2022/05/29 09:17:35;;;;;;;4.13;1.90;;;;;;;;;;5001136;28;20228;-73
2022/05/29 09:20:02;;;;;;;2.63;1.33;;;;;;;;;;5002847;28;21236;-73
2022/05/29 09:22:34;;;;;;;2.40;1.70;;;;;;;;;;5003836;28;20779;-72
2022/05/29 09:25:20;;;;;;;4.13;1.57;;;;;;;;;;5019640;28;20230;-73
2022/05/29 09:27:49;;;;;;;4.37;2.10;;;;;;;;;;5015897;28;20339;-74
2022/05/29 09:30:15;;;;;;;2.77;1.67;;;;;;;;;;4979370;28;20225;-73
2022/05/29 09:32:51;;;;;;;4.47;1.83;;;;;;;;;;5015849;28;20277;-74
2022/05/29 09:35:27;;;;;;;2.97;1.40;;;;;;;;;;4961197;28;20242;-73
2022/05/29 09:38:08;;;;;;;2.97;1.80;;;;;;;;;;5017442;28;20220;-75
2022/05/29 09:41:10;;;;;;;2.13;1.50;;;;;;;;;;5020559;28;20236;-76
2022/05/29 09:43:36;;;;;;;2.73;1.60;;;;;;;;;;4969549;28;20234;-73
2022/05/29 09:46:19;;;;;;;4.63;1.60;;;;;;;;;;4982982;28;20316;-73
2022/05/29 09:51:38;;;;;;;2.27;1.40;;;;;;;;;;4982403;28;20224;-72
2022/05/29 09:54:04;;;;;;;4.90;1.33;;;;;;;;;;4987215;28;20777;-74
2022/05/29 09:56:35;;;;;;;2.97;1.87;;;;;;;;;;4996905;28;20224;-73
2022/05/29 09:59:05;;;;;;;3.83;1.97;;;;;;;;;;5002742;28;20299;-73
2022/05/29 10:01:40;;;;;;;4.20;1.93;;;;;;;;;;5003290;28;20269;-75
2022/05/29 10:04:08;;;;;;;4.37;1.93;;;;;;;;;;4980612;28;20236;-74
2022/05/29 10:06:42;;;;;;;4.83;2.20;;;;;;;;;;5000224;28;20227;-75
2022/05/29 10:09:18;;;;;;;5.40;2.20;;;;;;;;;;5001856;28;20339;-73
2022/05/29 10:11:46;;;;;;;4.57;2.27;;;;;;;;;;4980367;28;20228;-74
2022/05/29 10:14:36;;;;;;;3.10;2.10;;;;;;;;;;5015212;28;20224;-74
2022/05/29 10:17:04;;;;;;;3.30;2.13;;;;;;;;;;5016658;28;20317;-74
2022/05/29 10:19:40;;;;;;;5.87;2.20;;;;;;;;;;4987192;28;20227;-73
2022/05/29 10:22:19;;;;;;;5.57;2.00;;;;;;;;;;4996142;28;20336;-75
2022/05/29 10:24:44;;;;;;;4.90;2.07;;;;;;;;;;4985512;28;20238;-74
2022/05/29 10:27:29;;;;;;;4.83;2.00;;;;;;;;;;4995658;28;20227;-74
2022/05/29 10:29:59;;;;;;;4.37;1.80;;;;;;;;;;4997296;28;20219;-75
2022/05/29 10:32:29;;;;;;;4.13;2.03;;;;;;;;;;5007603;28;20220;-75
2022/05/29 10:35:25;;;;;;;5.80;1.90;;;;;;;;;;5010687;28;20224;-75
2022/05/29 10:37:52;;;;;;;4.47;2.03;;;;;;;;;;5016859;28;20224;-76
2022/05/29 10:40:33;;;;;;;3.53;2.20;;;;;;;;;;4970808;28;21110;-74
2022/05/29 10:43:03;;;;;;;3.70;1.90;;;;;;;;;;5013934;28;20383;-74
2022/05/29 10:45:55;;;;;;;3.87;1.40;;;;;;;;;;5018294;28;20317;-76
2022/05/29 10:48:43;;;;;;;3.93;1.47;;;;;;;;;;5004244;28;20234;-76
2022/05/29 10:51:20;;;;;;;3.63;1.27;;;;;;;;;;5004837;28;20640;-76
2022/05/29 10:54:16;;;;;;;2.37;1.30;;;;;;;;;;5019395;28;20212;-77
2022/05/29 10:57:14;;;;;;;4.03;1.70;;;;;;;;;;5020779;28;20694;-74
2022/05/29 11:00:09;;;;;;;3.85;1.70;;;;;;;;;;5005545;28;20224;-74
2022/05/29 11:03:21;;;;;;;2.27;1.10;;;;;;;;;;5002086;28;20239;-74
2022/05/29 11:06:16;;;;;;;1.80;1.23;;;;;;;;;;4995835;28;20229;-74
2022/05/29 11:08:48;;;;;;;2.13;1.60;;;;;;;;;;5018606;28;20220;-73
2022/05/29 11:11:24;;;;;;;3.57;2.17;;;;;;;;;;5022119;28;20261;-72
2022/05/29 11:14:04;;;;;;;3.57;2.10;;;;;;;;;;4998944;28;20314;-72
2022/05/29 11:16:30;;;;;;;3.23;2.10;;;;;;;;;;5021594;28;20273;-71
2022/05/29 11:19:17;;;;;;;5.07;3.37;;;;;;;;;;5024951;28;20660;-73
2022/05/29 11:22:07;;;;;;;4.10;2.40;;;;;;;;;;5017591;28;20252;-72
2022/05/29 11:24:47;;;;;;;4.73;1.83;;;;;;;;;;5014074;28;20250;-72
2022/05/29 11:27:41;;;;;;;1.63;1.53;;;;;;;;;;5021267;28;20228;-71
2022/05/29 11:30:41;;;;;;;3.47;1.77;;;;;;;;;;4984713;28;20694;-71
2022/05/29 11:33:16;;;;;;;4.83;1.90;;;;;;;;;;5018091;28;20224;-73
2022/05/29 11:36:08;;;;;;;3.83;1.83;;;;;;;;;;5020781;28;20223;-72
2022/05/29 11:38:34;;;;;;;3.17;2.00;;;;;;;;;;5023240;28;20219;-71
2022/05/29 11:41:02;;;;;;;6.23;3.90;;;;;;;;;;5023790;28;20710;-72
2022/05/29 11:43:31;;;;;;;3.07;2.10;;;;;;;;;;5014632;28;20273;-72
2022/05/29 11:51:52;;;;;;;4.40;1.73;;;;;;;;;;5003552;28;20282;-72
2022/05/29 11:54:34;;;;;;;2.13;1.67;;;;;;;;;;5021991;28;20303;-74
2022/05/29 11:57:12;;;;;;;4.13;1.90;;;;;;;;;;4991096;28;20246;-72
2022/05/29 11:59:53;;;;;;;4.73;2.40;;;;;;;;;;5021532;28;20282;-74
2022/05/29 12:02:27;;;;;;;2.60;1.60;;;;;;;;;;5021483;28;20763;-72
2022/05/29 12:05:18;;;;;;;3.10;1.10;;;;;;;;;;5021446;28;20292;-71
2022/05/29 12:07:54;;;;;;;2.97;1.70;;;;;;;;;;5021577;28;20228;-72
2022/05/29 12:10:24;;;;;;;2.20;1.70;;;;;;;;;;4982310;28;20228;-73
2022/05/29 12:12:58;;;;;;;2.10;1.57;;;;;;;;;;4978595;28;20220;-73
2022/05/29 12:15:24;;;;;;;1.80;1.17;;;;;;;;;;5021633;28;20255;-73
2022/05/29 12:17:55;;;;;;;4.87;3.20;;;;;;;;;;5004020;28;20224;-73
2022/05/29 12:20:23;;;;;;;3.97;1.53;;;;;;;;;;5009885;28;20266;-73
2022/05/29 12:22:49;;;;;;;3.80;2.00;;;;;;;;;;5008888;28;20718;-73
2022/05/29 12:25:48;;;;;;;3.00;1.20;;;;;;;;;;5003787;28;20626;-72
2022/05/29 12:28:20;;;;;;;2.60;1.23;;;;;;;;;;4987544;28;20405;-72
2022/05/29 12:30:49;;;;;;;1.50;0.80;;;;;;;;;;5009220;28;20713;-71
2022/05/29 12:33:16;;;;;;;2.43;1.10;;;;;;;;;;4980235;28;20224;-72
2022/05/29 12:36:05;;;;;;;4.10;0.90;;;;;;;;;;4981524;28;20235;-71
2022/05/29 12:39:19;;;;;;;3.00;2.40;;;;;;;;;;5017737;28;20228;-73
2022/05/29 12:41:49;;;;;;;2.80;1.00;;;;;;;;;;4977784;28;20227;-73
2022/05/29 12:44:58;;;;;;;3.08;0.98;;;;;;;;;;5017224;28;20556;-73
2022/05/29 12:47:44;;;;;;;1.98;1.05;;;;;;;;;;4944453;28;20229;-72
2022/05/29 12:50:16;;;;;;;1.48;1.02;;;;;;;;;;4954812;28;20328;-73
2022/05/29 12:52:46;;;;;;;1.50;0.90;;;;;;;;;;4990531;28;20647;-72
2022/05/29 12:55:51;;;;;;;2.58;1.08;;;;;;;;;;4996294;28;20696;-72
2022/05/29 12:58:25;;;;;;;3.20;1.10;;;;;;;;;;5000117;28;20258;-72
2022/05/29 13:01:01;;;;;;;1.45;0.80;;;;;;;;;;5022350;28;20223;-74
2022/05/29 13:03:55;;;;;;;3.45;1.00;;;;;;;;;;5000312;28;20323;-73
2022/05/29 13:06:42;;;;;;;2.28;1.60;;;;;;;;;;5001865;28;20303;-75
2022/05/29 13:09:15;;;;;;;1.98;1.10;;;;;;;;;;5005490;28;20246;-71
2022/05/29 13:11:57;;;;;;;1.58;1.20;;;;;;;;;;5001242;28;20224;-71
2022/05/29 13:14:25;;;;;;;1.85;1.00;;;;;;;;;;4980656;28;20228;-72
2022/05/29 13:17:24;;;;;;;2.60;1.80;;;;;;;;;;4987516;28;20347;-72
2022/05/29 13:20:11;;;;;;;1.73;1.20;;;;;;;;;;4975171;28;20224;-71
2022/05/29 13:22:54;;;;;;;2.75;1.42;;;;;;;;;;4978411;28;20278;-72
2022/05/29 13:25:27;;;;;;;1.58;1.10;;;;;;;;;;4987454;28;20270;-71
2022/05/29 13:27:52;;;;;;;3.72;1.15;;;;;;;;;;4988658;28;20227;-73
2022/05/29 13:30:36;;;;;;;3.25;1.23;;;;;;;;;;5003653;28;21123;-73
2022/05/29 13:33:28;;;;;;;2.28;1.20;;;;;;;;;;5017124;28;20258;-71
2022/05/29 13:35:53;;;;;;;2.28;1.40;;;;;;;;;;5020682;28;20351;-71
2022/05/29 13:38:43;;;;;;;2.50;1.48;;;;;;;;;;5002164;28;20234;-73
2022/05/29 13:41:50;;;;;;;2.33;1.30;;;;;;;;;;5020060;28;20220;-73
2022/05/29 13:44:35;;;;;;;2.75;1.23;;;;;;;;;;4999738;28;20227;-72
2022/05/29 13:47:19;;;;;;;2.22;1.30;;;;;;;;;;5017025;28;20741;-71
2022/05/29 13:49:54;;;;;;;2.07;1.20;;;;;;;;;;4999145;28;20231;-73
2022/05/29 13:52:25;;;;;;;1.33;0.80;;;;;;;;;;5021441;28;20220;-72
2022/05/29 13:55:05;;;;;;;1.63;1.10;;;;;;;;;;4997274;28;20223;-72
2022/05/29 14:03:58;;;;;;;1.80;1.10;;;;;;;;;;5017277;28;20228;-72
2022/05/29 14:06:36;;;;;;;2.00;1.20;;;;;;;;;;4997886;28;20230;-71
2022/05/29 14:09:31;;;;;;;1.43;1.00;;;;;;;;;;5001205;28;20318;-72
2022/05/29 14:12:04;;;;;;;2.90;1.00;;;;;;;;;;5017161;28;20232;-74
2022/05/29 14:14:35;;;;;;;2.07;1.10;;;;;;;;;;4996387;28;20741;-72
2022/05/29 14:17:13;;;;;;;3.17;1.20;;;;;;;;;;4998316;28;20724;-72
2022/05/29 14:19:53;;;;;;;1.70;0.93;;;;;;;;;;5019940;28;20819;-72
2022/05/29 14:25:17;;;;;;;3.73;1.50;;;;;;;;;;5020220;28;20231;-72
2022/05/29 14:28:11;;;;;;;3.23;1.57;;;;;;;;;;4995328;28;20220;-72
2022/05/29 14:30:45;;;;;;;2.07;1.40;;;;;;;;;;5022689;28;20288;-72
2022/05/29 14:33:20;;;;;;;2.87;1.53;;;;;;;;;;5022885;28;20219;-72
2022/05/29 14:36:06;;;;;;;2.07;1.03;;;;;;;;;;5001690;28;20263;-73
2022/05/29 14:39:02;;;;;;;3.57;1.20;;;;;;;;;;5000194;28;20239;-72
2022/05/29 14:41:34;;;;;;;3.13;1.47;;;;;;;;;;4998943;28;20247;-71
2022/05/29 14:44:09;;;;;;;2.33;1.60;;;;;;;;;;5015503;28;20224;-72
2022/05/29 14:46:50;;;;;;;3.93;1.80;;;;;;;;;;5005408;28;20227;-73
2022/05/29 14:49:19;;;;;;;2.83;2.10;;;;;;;;;;5021642;28;20230;-72
2022/05/29 14:52:06;;;;;;;4.53;2.33;;;;;;;;;;4989464;28;20239;-73
2022/05/29 14:54:39;;;;;;;3.87;1.90;;;;;;;;;;4973246;28;20223;-71
2022/05/29 14:57:07;;;;;;;4.07;1.83;;;;;;;;;;5020471;28;20224;-72
2022/05/29 14:59:34;;;;;;;4.57;2.10;;;;;;;;;;4997419;28;20820;-71
2022/05/29 15:02:11;;;;;;;7.43;2.10;;;;;;;;;;5023081;28;20962;-71
2022/05/29 15:04:42;;;;;;;3.47;1.80;;;;;;;;;;4971042;28;20220;-71
2022/05/29 15:12:45;;;;;;;5.93;3.30;;;;;;;;;;5002178;28;20231;-73
2022/05/29 15:15:15;;;;;;;4.17;2.20;;;;;;;;;;5003328;28;20224;-72
2022/05/29 15:17:43;;;;;;;3.50;1.97;;;;;;;;;;4982960;28;20216;-71
2022/05/29 15:26:11;;;;;;;1.90;1.70;;;;;;;;;;5006776;28;20728;-72
2022/05/29 15:28:41;;;;;;;4.63;1.70;;;;;;;;;;5005610;28;20915;-73
2022/05/29 15:31:07;;;;;;;3.53;1.90;;;;;;;;;;4997073;28;20748;-74
2022/05/29 15:33:42;;;;;;;4.83;1.97;;;;;;;;;;4985766;28;20596;-74
2022/05/29 15:36:21;;;;;;;3.70;1.70;;;;;;;;;;4989366;28;20243;-71
2022/05/29 15:38:56;;;;;;;3.30;1.63;;;;;;;;;;4980527;28;21250;-72
2022/05/29 15:41:36;;;;;;;3.23;1.70;;;;;;;;;;5020552;28;20232;-72
2022/05/29 15:44:38;;;;;;;3.47;1.67;;;;;;;;;;4987107;28;20289;-72
2022/05/29 15:47:34;;;;;;;3.60;1.60;;;;;;;;;;5022573;28;20258;-71
2022/05/29 15:50:10;;;;;;;3.37;1.50;;;;;;;;;;5022451;28;20219;-72
2022/05/29 15:52:54;;;;;;;2.87;1.70;;;;;;;;;;5021430;28;20254;-73
2022/05/29 15:55:29;;;;;;;3.30;1.40;;;;;;;;;;5015123;28;20739;-72
2022/05/29 15:58:29;;;;;;;3.90;1.70;;;;;;;;;;5021190;28;20224;-71
2022/05/29 16:01:10;;;;;;;3.90;1.80;;;;;;;;;;4987065;28;20235;-71
2022/05/29 16:03:38;;;;;;;4.27;1.90;;;;;;;;;;5005906;28;20235;-73
2022/05/29 16:06:10;;;;;;;5.03;1.97;;;;;;;;;;4997470;28;20667;-72
2022/05/29 16:08:36;;;;;;;3.67;1.90;;;;;;;;;;4998736;28;20783;-72
2022/05/29 16:11:03;;;;;;;4.17;2.00;;;;;;;;;;4981123;28;20235;-73
2022/05/29 16:13:45;;;;;;;6.13;2.07;;;;;;;;;;5021150;28;20250;-73